Overview Statistics Trail Chart Weather Telemetry Raw packets
 

This is the latest recevied weather packets stored in our database for station/object IW1CBG-3. If no packets are shown the sender has not sent any weather packets the latest 10 day(s).

<< 26 27 28 29 30 31 32 >>
Time Temp. Humidity Pressure Rain* Wind** Luminosity Snow
1788267980 25.56° C 71% 1026.8 hPa 0 mm - - -
1788267377 25.56° C 70% 1026.5 hPa 0 mm - - -
1788266776 25.56° C 67% 1026.5 hPa 0 mm - - -
1788266176 26.11° C 70% 1026.6 hPa 0 mm - - -
1788265577 25.56° C 66% 1026.7 hPa 0 mm - - -
1788264976 26.67° C 67% 1026.5 hPa 0 mm - - -
1788264376 27.78° C 54% 1026.3 hPa 0 mm - - -
1788263776 27.78° C 40% 1026.1 hPa 0 mm - - -
1788263177 27.22° C 39% 1026.5 hPa 0 mm - - -
1788262588 27.22° C 40% 1026.4 hPa 0 mm - - -
1788261977 26.67° C 39% 1026.4 hPa 0 mm - - -
1788261377 26.67° C 41% 1026.5 hPa 0 mm - - -
1788260777 26.67° C 40% 1026.5 hPa 0 mm - - -
1788260177 26.67° C 41% 1026.5 hPa 0 mm - - -
1788259576 26.11° C 43% 1026.6 hPa 0 mm - - -
1788258976 25.56° C 46% 1027.2 hPa 0 mm - - -
1788258376 26.11° C 45% 1027.1 hPa 0 mm - - -
1788257780 25° C 46% 1027.7 hPa 0 mm - - -
1788257177 25° C 47% 1027.7 hPa 0 mm - - -
1788256576 24.44° C 48% 1027.8 hPa 0 mm - - -
1788255976 24.44° C 50% 1028.1 hPa 0 mm - - -
1788255377 23.89° C 52% 1028 hPa 0 mm - - -
1788254777 23.33° C 52% 1028 hPa 0 mm - - -
1788254176 23.33° C 52% 1028.3 hPa 0 mm - - -
1788253578 24.44° C 50% 1027.9 hPa 0 mm - - -

* Rain latest hour (hover to see other rain measurements)
** Current wind speed in m/s (hover to see current wind gust speed)